createdAt,value
2023-03-24T00:00:18.186Z,99835.84
2023-03-24T00:02:46.590Z,99839.59
2023-03-24T00:05:17.016Z,99831.22
2023-03-24T00:07:46.637Z,99825.97
2023-03-24T00:10:18.072Z,99825.75
2023-03-24T00:12:46.872Z,99817.78
2023-03-24T00:15:19.874Z,99816.09
2023-03-24T00:17:50.492Z,99823.44
2023-03-24T00:20:20.176Z,99808.09
2023-03-24T00:22:50.828Z,99797.84
2023-03-24T00:25:19.907Z,99791.34
2023-03-24T00:27:48.863Z,99785.03
2023-03-24T00:30:18.006Z,99790.50
2023-03-24T00:32:45.276Z,99783.34
2023-03-24T00:35:14.550Z,99780.63
2023-03-24T00:37:42.883Z,99784.00
2023-03-24T00:40:14.000Z,99781.28
2023-03-24T00:42:45.665Z,99778.75
2023-03-24T00:45:15.217Z,99778.94
2023-03-24T00:47:44.904Z,99785.44
2023-03-24T00:50:17.392Z,99775.56
2023-03-24T00:52:47.882Z,99769.91
2023-03-24T00:55:16.461Z,99757.13
2023-03-24T00:57:51.776Z,99761.53
2023-03-24T01:00:24.193Z,99757.13
2023-03-24T01:02:55.466Z,99751.66
2023-03-24T01:05:24.103Z,99747.88
2023-03-24T01:07:53.682Z,99749.78
2023-03-24T01:10:26.189Z,99741.78
2023-03-24T01:12:56.033Z,99736.97
2023-03-24T01:15:26.473Z,99739.06
2023-03-24T01:17:54.365Z,99730.88
2023-03-24T01:20:23.178Z,99730.88
2023-03-24T01:22:51.306Z,99733.41
2023-03-24T01:25:20.896Z,99730.88
2023-03-24T01:27:48.788Z,99728.16
2023-03-24T01:30:18.734Z,99717.25
2023-03-24T01:32:45.319Z,99716.19
2023-03-24T01:35:12.008Z,99717.03
2023-03-24T01:37:39.461Z,99711.78
2023-03-24T01:40:09.775Z,99709.06
2023-03-24T01:42:38.493Z,99701.91
2023-03-24T01:45:42.154Z,99698.53
2023-03-24T01:48:16.465Z,99687.22
2023-03-24T01:50:47.046Z,99693.53
2023-03-24T01:53:13.938Z,99693.53
2023-03-24T01:55:42.651Z,99689.75
2023-03-24T01:58:09.838Z,99680.94
2023-03-24T02:00:51.019Z,99673.59
2023-03-24T02:03:40.113Z,99675.47
2023-03-24T02:06:08.592Z,99676.94
2023-03-24T02:08:50.608Z,99668.94
2023-03-24T02:11:17.147Z,99663.50
2023-03-24T02:13:50.843Z,99670.84
2023-03-24T02:17:07.446Z,99652.78
2023-03-24T02:19:47.645Z,99662.44
2023-03-24T02:22:40.946Z,99655.31
2023-03-24T02:25:16.474Z,99649.00
2023-03-24T02:27:58.283Z,99654.47
2023-03-24T02:30:49.860Z,99650.50
2023-03-24T02:33:46.455Z,99650.50
2023-03-24T02:36:50.156Z,99658.69
2023-03-24T02:39:38.014Z,99659.31
2023-03-24T02:42:17.181Z,99663.72
2023-03-24T02:44:46.520Z,99663.94
2023-03-24T02:47:20.586Z,99659.94
2023-03-24T02:49:55.870Z,99657.88
2023-03-24T02:52:40.444Z,99662.47
2023-03-24T02:55:16.558Z,99650.72
2023-03-24T02:57:46.577Z,99651.56
2023-03-24T03:00:36.700Z,99655.56
2023-03-24T03:03:12.032Z,99664.81
2023-03-24T03:05:46.422Z,99658.69
2023-03-24T03:08:17.502Z,99661.44
2023-03-24T03:10:47.244Z,99666.03
2023-03-24T03:13:34.051Z,99674.88
2023-03-24T03:16:07.595Z,99678.66
2023-03-24T03:18:43.452Z,99670.47
2023-03-24T03:21:15.977Z,99675.28
2023-03-24T03:23:49.651Z,99676.13
2023-03-24T03:26:19.693Z,99675.47
2023-03-24T03:28:57.748Z,99684.50
2023-03-24T03:31:29.903Z,99692.06
2023-03-24T03:34:08.713Z,99715.75
2023-03-24T03:36:50.886Z,99719.53
2023-03-24T03:39:34.186Z,99712.19
2023-03-24T03:42:06.749Z,99729.59
2023-03-24T03:44:33.566Z,99743.03
2023-03-24T03:47:00.489Z,99753.94
2023-03-24T03:49:37.740Z,99781.22
2023-03-24T03:52:05.407Z,99783.13
2023-03-24T03:54:32.698Z,99796.56
2023-03-24T03:56:59.878Z,99798.44
2023-03-24T03:59:37.021Z,99800.13
2023-03-24T04:02:43.177Z,99813.75
2023-03-24T04:05:47.378Z,99800.97
2023-03-24T04:08:26.390Z,99810.84
2023-03-24T04:11:40.605Z,99816.50
2023-03-24T04:14:15.938Z,99816.50
2023-03-24T04:17:07.038Z,99822.78
2023-03-24T04:20:06.272Z,99829.47
2023-03-24T04:22:49.509Z,99836.81
2023-03-24T04:25:35.175Z,99845.84
2023-03-24T04:28:06.384Z,99860.34
2023-03-24T04:30:44.536Z,99877.56
2023-03-24T04:33:25.136Z,99882.16
2023-03-24T04:36:06.616Z,99890.34
2023-03-24T04:38:53.210Z,99884.03
2023-03-24T04:41:31.945Z,99876.06
2023-03-24T04:44:11.855Z,99891.59
2023-03-24T04:46:59.234Z,99888.00
2023-03-24T04:49:27.169Z,99884.44
2023-03-24T04:51:54.806Z,99897.03
2023-03-24T04:54:25.433Z,99901.66
2023-03-24T04:57:01.863Z,99903.53
2023-03-24T04:59:34.181Z,99910.88
2023-03-24T05:02:02.984Z,99924.50
2023-03-24T05:04:30.574Z,99915.47
2023-03-24T05:07:04.960Z,99919.06
2023-03-24T05:09:31.680Z,99930.63
2023-03-24T05:12:01.575Z,99930.63
2023-03-24T05:14:31.900Z,99927.69
2023-03-24T05:16:58.424Z,99918.66
2023-03-24T05:19:24.976Z,99936.91
2023-03-24T05:21:51.634Z,99933.34
2023-03-24T05:24:18.710Z,99937.75
2023-03-24T05:26:47.375Z,99939.44
2023-03-24T05:29:17.176Z,99952.06
2023-03-24T05:31:45.130Z,99950.38
2023-03-24T05:34:23.180Z,99960.03
2023-03-24T05:37:22.128Z,99956.28
2023-03-24T05:39:50.580Z,99959.38
2023-03-24T05:42:40.026Z,99974.72
2023-03-24T05:45:07.631Z,99976.22
2023-03-24T05:47:34.417Z,99978.09
2023-03-24T05:50:01.114Z,99973.47
2023-03-24T05:52:29.098Z,99972.63
2023-03-24T05:55:07.517Z,99976.41
2023-03-24T05:57:34.708Z,99985.25
2023-03-24T06:00:24.725Z,99993.44
2023-03-24T06:02:58.808Z,99996.16
2023-03-24T06:05:31.860Z,100001.41
2023-03-24T06:07:59.029Z,99995.97
2023-03-24T06:10:28.511Z,99996.81
2023-03-24T06:12:56.623Z,99999.34
2023-03-24T06:15:27.915Z,99997.44
2023-03-24T06:18:01.054Z,99994.72
2023-03-24T06:20:33.880Z,100001.88
2023-03-24T06:23:00.614Z,100000.81
2023-03-24T06:25:35.759Z,99998.28
2023-03-24T06:28:18.562Z,100008.38
2023-03-24T06:30:46.849Z,100010.06
2023-03-24T06:33:19.105Z,100020.13
2023-03-24T06:35:46.147Z,100012.78
2023-03-24T06:38:15.819Z,100012.78
2023-03-24T06:40:44.101Z,100016.34
2023-03-24T06:43:10.754Z,100013.63
2023-03-24T06:45:40.082Z,100019.94
2023-03-24T06:48:09.918Z,100024.34
2023-03-24T06:50:37.999Z,100027.28
2023-03-24T06:53:08.825Z,100030.84
2023-03-24T06:55:36.593Z,100040.06
2023-03-24T06:58:04.378Z,100041.09
2023-03-24T07:00:43.272Z,100048.66
2023-03-24T07:03:26.442Z,100040.84
2023-03-24T07:06:13.020Z,100035.59
2023-03-24T07:08:40.175Z,100043.97
2023-03-24T07:11:09.849Z,100041.03
2023-03-24T07:13:38.935Z,100045.47
2023-03-24T07:16:06.375Z,100043.38
2023-03-24T07:18:34.808Z,100052.59
2023-03-24T07:21:05.166Z,100060.13
2023-03-24T07:23:33.198Z,100060.97
2023-03-24T07:26:04.814Z,100079.22
2023-03-24T07:28:53.787Z,100067.28
2023-03-24T07:31:50.783Z,100075.28
2023-03-24T07:34:17.375Z,100068.97
2023-03-24T07:36:43.818Z,100062.66
2023-03-24T07:39:14.564Z,100063.50
2023-03-24T07:41:41.225Z,100056.19
2023-03-24T07:44:17.623Z,100063.50
2023-03-24T07:46:49.869Z,100072.34
2023-03-24T07:49:19.807Z,100079.03
2023-03-24T07:52:08.644Z,100073.78
2023-03-24T07:54:42.010Z,100072.94
2023-03-24T07:57:11.096Z,100082.81
2023-03-24T07:59:38.161Z,100079.88
2023-03-24T08:02:19.987Z,100095.41
2023-03-24T08:05:20.615Z,100092.28
2023-03-24T08:08:19.212Z,100109.97
2023-03-24T08:10:46.548Z,100100.09
2023-03-24T08:13:13.357Z,100107.25
2023-03-24T08:15:39.925Z,100121.47
2023-03-24T08:19:58.500Z,100115.75
2023-03-24T08:22:49.967Z,100117.88
2023-03-24T08:25:26.743Z,100122.50
2023-03-24T08:28:02.424Z,100122.50
2023-03-24T08:30:28.974Z,100124.19
2023-03-24T08:32:59.466Z,100126.91
2023-03-24T08:35:34.872Z,100132.56
2023-03-24T08:38:06.139Z,100126.84
2023-03-24T08:40:34.967Z,100136.53
2023-03-24T08:43:04.181Z,100130.03
2023-03-24T08:45:32.443Z,100138.59
2023-03-24T08:48:01.338Z,100142.25
2023-03-24T08:50:32.448Z,100144.28
2023-03-24T08:52:59.013Z,100148.44
2023-03-24T08:55:26.320Z,100142.00
2023-03-24T08:57:53.370Z,100146.88
2023-03-24T09:00:21.127Z,100150.94
2023-03-24T09:02:50.646Z,100131.63
2023-03-24T09:05:29.353Z,100141.50
2023-03-24T09:08:03.711Z,100146.50
